Time,TemperatureF,DewpointF,PressureIn,WindDirection,WindDirectionDegrees,WindSpeedMPH,WindSpeedGustMPH,Humidity,HourlyPrecipIn,Conditions,Clouds,dailyrainin,SolarRadiationWatts/m^2,SoftwareType,DateUTC
2013-09-08 00:04:00,57.2,54.9,30.06,East,90,8.1,8.1,92,0.00,,BKN,0.00,0.0,WeatherDisplay:10.37,2013-09-08 05:04:00,
2013-09-08 00:09:00,57.1,54.8,30.06,East,87,6.0,12.0,92,0.00,,BKN,0.00,0.0,WeatherDisplay:10.37,2013-09-08 05:09:00,
2013-09-08 00:14:00,57.0,54.7,30.06,East,84,11.5,11.5,92,0.00,,BKN,0.00,0.0,WeatherDisplay:10.37,2013-09-08 05:14:00,
2013-09-08 00:19:00,57.0,54.7,30.06,East,83,6.0,8.0,92,0.00,,BKN,0.00,0.0,WeatherDisplay:10.37,2013-09-08 05:19:00,
2013-09-08 00:24:00,56.9,54.3,30.06,ENE,73,8.1,8.1,91,0.00,,BKN,0.00,0.0,WeatherDisplay:10.37,2013-09-08 05:24:00,
2013-09-08 00:29:00,56.8,54.2,30.06,ENE,78,6.0,9.0,91,0.00,,BKN,0.00,0.0,WeatherDisplay:10.37,2013-09-08 05:29:00,
2013-09-08 00:34:00,56.7,54.1,30.06,East,79,8.1,8.1,91,0.00,,BKN,0.00,0.0,WeatherDisplay:10.37,2013-09-08 05:34:00,
2013-09-08 00:40:00,56.6,53.7,30.07,East,79,8.1,8.1,90,0.00,,BKN,0.00,0.0,WeatherDisplay:10.37,2013-09-08 05:40:00,
2013-09-08 00:45:00,56.5,53.6,30.07,East,92,10.4,10.4,90,0.00,,BKN,0.00,0.0,WeatherDisplay:10.37,2013-09-08 05:45:00,
2013-09-08 00:50:00,56.3,53.4,30.07,ENE,67,9.2,9.2,90,0.00,,BKN,0.00,0.0,WeatherDisplay:10.37,2013-09-08 05:50:00,
2013-09-08 00:55:00,56.3,53.4,30.07,East,81,9.2,9.2,90,0.00,,BKN,0.00,0.0,WeatherDisplay:10.37,2013-09-08 05:55:00,
2013-09-08 01:00:00,56.2,53.3,30.07,East,82,10.4,10.4,90,0.00,,BKN,0.00,0.0,WeatherDisplay:10.37,2013-09-08 06:00:00,
2013-09-08 01:05:00,56.0,52.8,30.07,East,94,10.4,10.4,89,0.00,,BKN,0.00,0.0,WeatherDisplay:10.37,2013-09-08 06:05:00,
2013-09-08 01:10:00,55.9,52.7,30.07,East,86,10.4,10.4,89,0.00,,BKN,0.00,0.0,WeatherDisplay:10.37,2013-09-08 06:10:00,
2013-09-08 01:16:00,55.9,52.7,30.07,East,83,11.5,11.5,89,0.00,,BKN,0.00,0.0,WeatherDisplay:10.37,2013-09-08 06:16:00,
2013-09-08 01:21:00,55.9,52.7,30.07,East,79,7.0,7.0,89,0.00,,BKN,0.00,0.0,WeatherDisplay:10.37,2013-09-08 06:21:00,
2013-09-08 01:26:00,55.7,52.5,30.08,East,92,9.2,9.2,89,0.00,,BKN,0.00,0.0,WeatherDisplay:10.37,2013-09-08 06:26:00,
2013-09-08 01:31:00,55.7,52.5,30.07,East,79,8.1,8.1,89,0.00,,BKN,0.00,0.0,WeatherDisplay:10.37,2013-09-08 06:31:00,
2013-09-08 01:36:00,55.6,52.1,30.08,East,92,9.0,9.0,88,0.00,,BKN,0.00,0.0,WeatherDisplay:10.37,2013-09-08 06:36:00,
2013-09-08 01:41:00,55.6,52.4,30.08,East,84,8.0,8.0,89,0.00,,BKN,0.00,0.0,WeatherDisplay:10.37,2013-09-08 06:41:00,
2013-09-08 01:46:00,55.4,52.2,30.08,East,94,8.1,8.1,89,0.00,,BKN,0.00,0.0,WeatherDisplay:10.37,2013-09-08 06:46:00,
2013-09-08 01:51:00,55.3,52.1,30.08,East,96,5.8,5.8,89,0.00,,BKN,0.00,0.0,WeatherDisplay:10.37,2013-09-08 06:51:00,
2013-09-08 01:57:00,55.3,51.8,30.08,East,94,6.0,6.0,88,0.00,,BKN,0.00,0.0,WeatherDisplay:10.37,2013-09-08 06:57:00,
2013-09-08 02:02:00,55.1,51.6,30.08,East,90,6.9,6.9,88,0.00,,BKN,0.00,0.0,WeatherDisplay:10.37,2013-09-08 07:02:00,
2013-09-08 02:07:00,55.0,51.5,30.08,East,88,6.0,6.0,88,0.00,,BKN,0.00,0.0,WeatherDisplay:10.37,2013-09-08 07:07:00,
2013-09-08 02:12:00,54.8,51.3,30.08,East,86,7.0,7.0,88,0.00,,BKN,0.00,0.0,WeatherDisplay:10.37,2013-09-08 07:12:00,
2013-09-08 02:17:00,54.7,51.2,30.08,East,86,4.6,4.6,88,0.00,,BKN,0.00,0.0,WeatherDisplay:10.37,2013-09-08 07:17:00,
2013-09-08 02:22:00,54.5,51.0,30.08,East,87,5.8,5.8,88,0.00,,BKN,0.00,0.0,WeatherDisplay:10.37,2013-09-08 07:22:00,
2013-09-08 02:27:00,54.4,50.9,30.08,East,87,4.6,4.6,88,0.00,,BKN,0.00,0.0,WeatherDisplay:10.37,2013-09-08 07:27:00,
2013-09-08 02:33:00,54.2,50.7,30.08,East,87,5.0,5.0,88,0.00,,BKN,0.00,0.0,WeatherDisplay:10.37,2013-09-08 07:33:00,
2013-09-08 02:38:00,54.2,50.7,30.08,East,87,5.8,5.8,88,0.00,,BKN,0.00,0.0,WeatherDisplay:10.37,2013-09-08 07:38:00,
2013-09-08 02:43:00,54.1,50.9,30.08,East,86,4.0,4.0,89,0.00,,BKN,0.00,0.0,WeatherDisplay:10.37,2013-09-08 07:43:00,
2013-09-08 02:48:00,53.9,50.7,30.09,East,86,4.0,4.0,89,0.00,,BKN,0.00,0.0,WeatherDisplay:10.37,2013-09-08 07:48:00,
2013-09-08 02:53:00,53.8,50.6,30.09,East,86,4.6,4.6,89,0.00,,BKN,0.00,0.0,WeatherDisplay:10.37,2013-09-08 07:53:00,
2013-09-08 02:58:00,53.6,50.4,30.08,East,87,4.6,4.6,89,0.00,,BKN,0.00,0.0,WeatherDisplay:10.37,2013-09-08 07:58:00,
2013-09-08 03:03:00,53.5,50.3,30.08,East,87,4.6,4.6,89,0.00,,BKN,0.00,0.0,WeatherDisplay:10.37,2013-09-08 08:03:00,
2013-09-08 03:08:00,53.3,50.1,30.08,East,87,5.8,5.8,89,0.00,,BKN,0.00,0.0,WeatherDisplay:10.37,2013-09-08 08:08:00,
2013-09-08 03:14:00,53.2,50.0,30.08,East,87,3.5,3.5,89,0.00,,BKN,0.00,0.0,WeatherDisplay:10.37,2013-09-08 08:14:00,
2013-09-08 03:19:00,52.9,50.0,30.08,East,89,6.0,6.0,90,0.00,,BKN,0.00,0.0,WeatherDisplay:10.37,2013-09-08 08:19:00,
2013-09-08 03:24:00,52.8,49.9,30.08,East,92,6.9,6.9,90,0.00,,BKN,0.00,0.0,WeatherDisplay:10.37,2013-09-08 08:24:00,
2013-09-08 03:29:00,52.6,50.0,30.08,East,94,5.8,5.8,91,0.00,,BKN,0.00,0.0,WeatherDisplay:10.37,2013-09-08 08:29:00,
2013-09-08 03:34:00,52.5,49.9,30.08,East,91,5.8,5.8,91,0.00,,BKN,0.00,0.0,WeatherDisplay:10.37,2013-09-08 08:34:00,
2013-09-08 03:39:00,52.3,49.8,30.08,East,88,6.9,6.9,91,0.00,,BKN,0.00,0.0,WeatherDisplay:10.37,2013-09-08 08:39:00,
2013-09-08 03:44:00,52.2,49.9,30.08,East,90,5.0,7.0,92,0.00,,BKN,0.00,0.0,WeatherDisplay:10.37,2013-09-08 08:44:00,
2013-09-08 03:49:00,52.0,49.7,30.08,East,93,5.0,9.0,92,0.00,,BKN,0.00,0.0,WeatherDisplay:10.37,2013-09-08 08:49:00,
2013-09-08 03:54:00,51.9,49.6,30.08,East,96,5.8,5.8,92,0.00,,BKN,0.00,0.0,WeatherDisplay:10.37,2013-09-08 08:54:00,
2013-09-08 04:00:00,51.9,49.6,30.09,East,96,4.6,4.6,92,0.00,,BKN,0.00,0.0,WeatherDisplay:10.37,2013-09-08 09:00:00,
2013-09-08 04:05:00,51.7,49.5,30.08,East,96,8.1,8.1,92,0.00,,BKN,0.00,0.0,WeatherDisplay:10.37,2013-09-08 09:05:00,
2013-09-08 04:10:00,51.6,49.4,30.09,East,96,6.0,6.0,92,0.00,,BKN,0.00,0.0,WeatherDisplay:10.37,2013-09-08 09:10:00,
2013-09-08 04:15:00,51.6,49.6,30.09,East,92,8.1,8.1,93,0.00,,BKN,0.00,0.0,WeatherDisplay:10.37,2013-09-08 09:15:00,
2013-09-08 04:20:00,51.4,49.4,30.09,East,88,5.8,5.8,93,0.00,,BKN,0.00,0.0,WeatherDisplay:10.37,2013-09-08 09:20:00,
2013-09-08 04:25:00,51.4,49.4,30.09,East,86,8.1,8.1,93,0.00,,BKN,0.00,0.0,WeatherDisplay:10.37,2013-09-08 09:25:00,
2013-09-08 04:30:00,51.3,49.3,30.09,East,89,6.9,6.9,93,0.00,,BKN,0.00,0.0,WeatherDisplay:10.37,2013-09-08 09:30:00,
2013-09-08 04:36:00,51.3,49.3,30.09,East,89,6.0,6.0,93,0.00,,BKN,0.00,0.0,WeatherDisplay:10.37,2013-09-08 09:36:00,
2013-09-08 04:41:00,51.1,49.1,30.09,East,86,6.9,6.9,93,0.00,,BKN,0.00,0.0,WeatherDisplay:10.37,2013-09-08 09:41:00,
2013-09-08 04:46:00,51.1,49.1,30.10,East,87,5.8,5.8,93,0.00,,BKN,0.00,0.0,WeatherDisplay:10.37,2013-09-08 09:46:00,
2013-09-08 04:51:00,51.0,49.0,30.09,East,86,5.8,5.8,93,0.00,,BKN,0.00,0.0,WeatherDisplay:10.37,2013-09-08 09:51:00,
2013-09-08 04:56:00,51.0,49.0,30.09,East,88,9.2,9.2,93,0.00,,BKN,0.00,0.0,WeatherDisplay:10.37,2013-09-08 09:56:00,
2013-09-08 05:01:00,50.8,48.8,30.09,East,83,6.9,6.9,93,0.00,,BKN,0.00,0.0,WeatherDisplay:10.37,2013-09-08 10:01:00,
2013-09-08 05:06:00,50.8,48.8,30.09,East,83,7.0,7.0,93,0.00,,BKN,0.00,0.0,WeatherDisplay:10.37,2013-09-08 10:06:00,
2013-09-08 05:11:00,50.7,48.7,30.09,East,84,6.9,6.9,93,0.00,,BKN,0.00,0.0,WeatherDisplay:10.37,2013-09-08 10:11:00,
2013-09-08 05:17:00,50.7,48.7,30.10,East,83,4.6,4.6,93,0.00,,BKN,0.00,0.0,WeatherDisplay:10.37,2013-09-08 10:17:00,
2013-09-08 05:22:00,50.5,48.6,30.10,East,86,6.9,6.9,93,0.00,,BKN,0.00,0.0,WeatherDisplay:10.37,2013-09-08 10:22:00,
2013-09-08 05:27:00,50.5,48.6,30.10,East,85,5.8,5.8,93,0.00,,BKN,0.00,0.0,WeatherDisplay:10.37,2013-09-08 10:27:00,
2013-09-08 05:32:00,50.4,48.5,30.10,East,84,6.0,6.0,93,0.00,,BKN,0.00,0.0,WeatherDisplay:10.37,2013-09-08 10:32:00,
2013-09-08 05:37:00,50.4,48.5,30.10,East,85,4.0,4.0,93,0.00,,BKN,0.00,0.0,WeatherDisplay:10.37,2013-09-08 10:37:00,
2013-09-08 05:42:00,50.4,48.5,30.10,East,84,5.0,5.0,93,0.00,,BKN,0.00,0.0,WeatherDisplay:10.37,2013-09-08 10:42:00,
2013-09-08 05:47:00,50.2,48.3,30.10,East,85,5.8,5.8,93,0.00,,BKN,0.00,0.0,WeatherDisplay:10.37,2013-09-08 10:47:00,
2013-09-08 05:53:00,50.2,48.3,30.10,East,85,5.8,5.8,93,0.00,,BKN,0.00,0.0,WeatherDisplay:10.37,2013-09-08 10:53:00,
2013-09-08 05:58:00,50.1,48.2,30.10,East,84,3.5,3.5,93,0.00,,BKN,0.00,0.0,WeatherDisplay:10.37,2013-09-08 10:58:00,
2013-09-08 06:03:00,50.1,48.2,30.10,East,84,6.0,6.0,93,0.00,,BKN,0.00,0.0,WeatherDisplay:10.37,2013-09-08 11:03:00,
2013-09-08 06:08:00,49.9,48.0,30.10,East,85,6.9,6.9,93,0.00,,BKN,0.00,0.0,WeatherDisplay:10.37,2013-09-08 11:08:00,
2013-09-08 06:13:00,49.9,48.2,30.10,East,90,6.0,6.0,94,0.00,,BKN,0.00,0.0,WeatherDisplay:10.37,2013-09-08 11:13:00,
2013-09-08 06:18:00,49.8,48.1,30.10,East,86,8.0,8.0,94,0.00,,BKN,0.00,0.0,WeatherDisplay:10.37,2013-09-08 11:18:00,
2013-09-08 06:23:00,49.8,48.1,30.10,East,85,6.9,6.9,94,0.00,,BKN,0.00,0.0,WeatherDisplay:10.37,2013-09-08 11:23:00,
2013-09-08 06:28:00,49.8,48.1,30.10,East,86,8.1,8.1,94,0.00,,BKN,0.00,0.0,WeatherDisplay:10.37,2013-09-08 11:28:00,
2013-09-08 06:34:00,49.6,47.9,30.10,East,86,9.2,9.2,94,0.00,,BKN,0.00,0.0,WeatherDisplay:10.37,2013-09-08 11:34:00,
2013-09-08 06:39:00,49.6,47.9,30.10,East,92,8.1,8.1,94,0.00,,BKN,0.00,0.0,WeatherDisplay:10.37,2013-09-08 11:39:00,
2013-09-08 06:44:00,49.6,48.2,30.09,East,84,8.1,8.1,95,0.00,,BKN,0.00,0.0,WeatherDisplay:10.37,2013-09-08 11:44:00,
2013-09-08 06:49:00,49.6,48.2,30.09,East,85,9.2,9.2,95,0.00,,BKN,0.00,0.0,WeatherDisplay:10.37,2013-09-08 11:49:00,
2013-09-08 06:54:00,49.6,48.2,30.10,East,85,8.1,8.1,95,0.00,,BKN,0.00,0.0,WeatherDisplay:10.37,2013-09-08 11:54:00,
2013-09-08 06:59:00,49.6,48.2,30.10,East,88,8.1,8.1,95,0.00,,BKN,0.00,0.0,WeatherDisplay:10.37,2013-09-08 11:59:00,
2013-09-08 07:04:00,49.6,48.2,30.09,East,88,9.2,9.2,95,0.00,,BKN,0.00,0.0,WeatherDisplay:10.37,2013-09-08 12:04:00,
2013-09-08 07:09:00,49.8,48.4,30.09,East,90,7.0,10.0,95,0.00,CLR,BKN,0.00,0.0,WeatherDisplay:10.37,2013-09-08 12:09:00,
2013-09-08 07:15:00,49.9,48.5,30.10,ESE,105,5.8,5.8,95,0.00,CLR,BKN,0.00,0.0,WeatherDisplay:10.37,2013-09-08 12:15:00,
2013-09-08 07:20:00,49.9,48.5,30.10,ESE,104,6.0,6.0,95,0.00,CLR,BKN,0.00,0.0,WeatherDisplay:10.37,2013-09-08 12:20:00,
2013-09-08 07:25:00,50.1,48.7,30.10,ENE,77,7.0,7.0,95,0.00,CLR,BKN,0.00,0.0,WeatherDisplay:10.37,2013-09-08 12:25:00,
2013-09-08 07:30:00,50.4,49.0,30.10,East,83,8.1,8.1,95,0.00,CLR,BKN,0.00,0.0,WeatherDisplay:10.37,2013-09-08 12:30:00,
2013-09-08 07:35:00,50.5,49.1,30.10,East,100,8.1,8.1,95,0.00,CLR,BKN,0.00,0.0,WeatherDisplay:10.37,2013-09-08 12:35:00,
2013-09-08 07:40:00,50.7,49.3,30.10,East,100,5.8,5.8,95,0.00,CLR,BKN,0.00,0.0,WeatherDisplay:10.37,2013-09-08 12:40:00,
2013-09-08 07:45:00,50.8,49.4,30.10,ESE,102,11.5,11.5,95,0.00,CLR,BKN,0.00,0.0,WeatherDisplay:10.37,2013-09-08 12:45:00,
2013-09-08 07:51:00,51.1,49.7,30.10,East,79,8.0,8.0,95,0.00,CLR,BKN,0.00,0.0,WeatherDisplay:10.37,2013-09-08 12:51:00,
2013-09-08 07:56:00,51.6,50.2,30.10,ESE,113,10.4,10.4,95,0.00,CLR,BKN,0.00,0.0,WeatherDisplay:10.37,2013-09-08 12:56:00,
2013-09-08 08:01:00,51.9,50.5,30.10,East,92,9.2,9.2,95,0.00,OVC,BKN,0.00,0.0,WeatherDisplay:10.37,2013-09-08 13:01:00,
2013-09-08 08:06:00,52.3,50.9,30.10,ESE,105,9.0,9.0,95,0.00,OVC,BKN,0.00,0.0,WeatherDisplay:10.37,2013-09-08 13:06:00,
2013-09-08 08:11:00,52.8,51.4,30.10,East,81,10.4,10.4,95,0.00,OVC,BKN,0.00,0.0,WeatherDisplay:10.37,2013-09-08 13:11:00,
2013-09-08 08:16:00,53.2,51.2,30.10,East,101,11.5,11.5,93,0.00,OVC,BKN,0.00,0.0,WeatherDisplay:10.37,2013-09-08 13:16:00,
2013-09-08 08:21:00,53.6,51.3,30.10,ENE,75,11.0,11.0,92,0.00,OVC,BKN,0.00,0.0,WeatherDisplay:10.37,2013-09-08 13:21:00,
2013-09-08 08:27:00,54.1,51.2,30.10,ESE,106,9.2,9.2,90,0.00,OVC,BKN,0.00,0.0,WeatherDisplay:10.37,2013-09-08 13:27:00,
2013-09-08 08:32:00,54.7,50.9,30.10,East,91,10.4,10.4,87,0.00,OVC,BKN,0.00,0.0,WeatherDisplay:10.37,2013-09-08 13:32:00,
2013-09-08 08:37:00,55.3,51.2,30.10,ESE,113,5.8,5.8,86,0.00,OVC,BKN,0.00,0.0,WeatherDisplay:10.37,2013-09-08 13:37:00,
2013-09-08 08:42:00,55.6,51.2,30.10,East,98,4.0,4.0,85,0.00,OVC,BKN,0.00,0.0,WeatherDisplay:10.37,2013-09-08 13:42:00,
2013-09-08 08:47:00,55.9,51.5,30.11,ENE,66,8.1,8.1,85,0.00,OVC,BKN,0.00,0.0,WeatherDisplay:10.37,2013-09-08 13:47:00,
2013-09-08 08:52:00,56.3,51.8,30.11,East,91,7.0,7.0,85,0.00,OVC,BKN,0.00,0.0,WeatherDisplay:10.37,2013-09-08 13:52:00,
2013-09-08 08:57:00,56.5,51.7,30.11,East,100,8.1,8.1,84,0.00,OVC,BKN,0.00,0.0,WeatherDisplay:10.37,2013-09-08 13:57:00,
2013-09-08 09:02:00,56.7,51.9,30.11,East,88,9.0,9.0,84,0.00,OVC,BKN,0.00,0.0,WeatherDisplay:10.37,2013-09-08 14:02:00,
2013-09-08 09:08:00,56.9,52.1,30.11,East,88,5.8,5.8,84,0.00,OVC,BKN,0.00,0.0,WeatherDisplay:10.37,2013-09-08 14:08:00,
2013-09-08 09:13:00,57.2,52.1,30.12,East,96,7.0,7.0,83,0.00,OVC,BKN,0.00,0.0,WeatherDisplay:10.37,2013-09-08 14:13:00,
2013-09-08 09:18:00,57.3,51.9,30.12,ESE,119,6.9,6.9,82,0.00,OVC,BKN,0.00,0.0,WeatherDisplay:10.37,2013-09-08 14:18:00,
2013-09-08 09:23:00,57.5,51.7,30.12,ESE,121,5.8,5.8,81,0.00,OVC,BKN,0.00,0.0,WeatherDisplay:10.37,2013-09-08 14:23:00,
2013-09-08 09:28:00,57.8,52.7,30.12,East,95,6.9,6.9,83,0.00,OVC,BKN,0.00,0.0,WeatherDisplay:10.37,2013-09-08 14:28:00,
2013-09-08 09:33:00,58.1,52.6,30.12,ESE,108,5.0,5.0,82,0.00,OVC,BKN,0.00,0.0,WeatherDisplay:10.37,2013-09-08 14:33:00,
2013-09-08 09:38:00,58.3,52.5,30.12,East,100,6.0,6.0,81,0.00,OVC,BKN,0.00,0.0,WeatherDisplay:10.37,2013-09-08 14:38:00,
2013-09-08 09:44:00,58.6,53.1,30.11,ENE,77,6.9,6.9,82,0.00,OVC,BKN,0.00,0.0,WeatherDisplay:10.37,2013-09-08 14:44:00,
2013-09-08 09:49:00,59.0,51.8,30.11,ESE,121,11.5,11.5,77,0.00,OVC,BKN,0.00,0.0,WeatherDisplay:10.37,2013-09-08 14:49:00,
2013-09-08 09:54:00,59.5,53.3,30.11,ESE,119,13.8,13.8,80,0.00,OVC,BKN,0.00,0.0,WeatherDisplay:10.37,2013-09-08 14:54:00,
2013-09-08 09:59:00,59.8,52.2,30.11,SE,125,11.5,11.5,76,0.00,OVC,BKN,0.00,0.0,WeatherDisplay:10.37,2013-09-08 14:59:00,
2013-09-08 10:04:00,60.1,52.1,30.11,East,92,9.2,9.2,75,0.00,OVC,BKN,0.00,0.0,WeatherDisplay:10.37,2013-09-08 15:04:00,
2013-09-08 10:09:00,60.4,52.8,30.11,SE,133,7.0,7.0,76,0.00,OVC,BKN,0.00,0.0,WeatherDisplay:10.37,2013-09-08 15:09:00,
2013-09-08 10:14:00,60.7,51.6,30.11,ESE,117,9.2,9.2,72,0.00,OVC,BKN,0.00,0.0,WeatherDisplay:10.37,2013-09-08 15:14:00,
2013-09-08 10:19:00,61.8,52.7,30.10,SE,135,13.8,13.8,72,0.00,OVC,BKN,0.00,0.0,WeatherDisplay:10.37,2013-09-08 15:19:00,
2013-09-08 10:25:00,61.8,53.1,30.11,SSE,148,11.5,11.5,73,0.00,OVC,BKN,0.00,0.0,WeatherDisplay:10.37,2013-09-08 15:25:00,
2013-09-08 10:30:00,61.6,52.1,30.11,ESE,113,11.5,11.5,71,0.00,OVC,BKN,0.00,0.0,WeatherDisplay:10.37,2013-09-08 15:30:00,
2013-09-08 10:35:00,61.6,52.5,30.11,SE,130,8.1,8.1,72,0.00,OVC,BKN,0.00,0.0,WeatherDisplay:10.37,2013-09-08 15:35:00,
2013-09-08 10:40:00,62.1,52.6,30.11,SE,130,7.0,7.0,71,0.00,OVC,BKN,0.00,0.0,WeatherDisplay:10.37,2013-09-08 15:40:00,
2013-09-08 10:45:00,62.6,52.3,30.12,East,98,8.1,8.1,69,0.00,OVC,BKN,0.00,0.0,WeatherDisplay:10.37,2013-09-08 15:45:00,
2013-09-08 10:50:00,63.1,53.2,30.12,SE,130,7.0,7.0,70,0.00,OVC,BKN,0.00,0.0,WeatherDisplay:10.37,2013-09-08 15:50:00,
2013-09-08 10:55:00,63.1,51.1,30.11,ESE,117,14.0,14.0,65,0.00,OVC,BKN,0.00,0.0,WeatherDisplay:10.37,2013-09-08 15:55:00,
2013-09-08 11:01:00,63.4,51.8,30.11,SE,138,15.0,15.0,66,0.00,OVC,BKN,0.00,0.0,WeatherDisplay:10.37,2013-09-08 16:01:00,
2013-09-08 11:06:00,63.4,51.0,30.11,SE,125,13.8,13.8,64,0.00,OVC,BKN,0.00,0.0,WeatherDisplay:10.37,2013-09-08 16:06:00,
2013-09-08 11:11:00,63.4,50.6,30.11,SSE,154,18.4,18.4,63,0.00,OVC,BKN,0.00,0.0,WeatherDisplay:10.37,2013-09-08 16:11:00,
2013-09-08 11:16:00,63.4,51.4,30.11,SSE,158,9.2,9.2,65,0.00,OVC,BKN,0.00,0.0,WeatherDisplay:10.37,2013-09-08 16:16:00,
2013-09-08 11:21:00,63.2,50.4,30.10,SE,145,10.4,10.4,63,0.00,OVC,BKN,0.00,0.0,WeatherDisplay:10.37,2013-09-08 16:21:00,
2013-09-08 11:26:00,63.5,51.9,30.10,ESE,110,8.0,8.0,66,0.00,OVC,BKN,0.00,0.0,WeatherDisplay:10.37,2013-09-08 16:26:00,
2013-09-08 11:31:00,63.4,51.0,30.10,ESE,117,8.1,8.2,64,0.00,OVC,BKN,0.00,0.0,WeatherDisplay:10.37,2013-09-08 16:31:00,
2013-09-08 11:36:00,63.2,51.2,30.09,East,96,10.4,10.4,65,0.00,OVC,BKN,0.00,0.0,WeatherDisplay:10.37,2013-09-08 16:36:00,
2013-09-08 11:42:00,63.2,50.8,30.09,SE,139,7.0,7.0,64,0.00,OVC,BKN,0.00,0.0,WeatherDisplay:10.37,2013-09-08 16:42:00,
2013-09-08 11:47:00,63.2,51.2,30.09,SE,146,13.8,13.8,65,0.00,OVC,BKN,0.00,0.0,WeatherDisplay:10.37,2013-09-08 16:47:00,
2013-09-08 11:52:00,63.2,52.5,30.09,SSE,148,11.5,11.5,68,0.00,OVC,BKN,0.00,0.0,WeatherDisplay:10.37,2013-09-08 16:52:00,
2013-09-08 11:57:00,63.1,50.7,30.09,SSE,148,10.4,10.4,64,0.00,OVC,BKN,0.00,0.0,WeatherDisplay:10.37,2013-09-08 16:57:00,
2013-09-08 12:02:00,63.1,52.0,30.08,ESE,123,9.2,9.2,67,0.00,OVC,BKN,0.00,0.0,WeatherDisplay:10.37,2013-09-08 17:02:00,
2013-09-08 12:07:00,63.1,51.6,30.08,ESE,119,16.1,16.1,66,0.00,OVC,BKN,0.00,0.0,WeatherDisplay:10.37,2013-09-08 17:07:00,
2013-09-08 12:12:00,63.4,51.0,30.08,SE,144,13.8,13.8,64,0.00,OVC,BKN,0.00,0.0,WeatherDisplay:10.37,2013-09-08 17:12:00,
2013-09-08 12:18:00,63.4,51.4,30.08,East,89,8.1,8.1,65,0.00,OVC,BKN,0.00,0.0,WeatherDisplay:10.37,2013-09-08 17:18:00,
2013-09-08 12:23:00,63.4,51.4,30.08,SE,141,11.5,11.5,65,0.00,OVC,BKN,0.00,0.0,WeatherDisplay:10.37,2013-09-08 17:23:00,
2013-09-08 12:28:00,63.5,51.9,30.08,ESE,112,6.9,6.9,66,0.00,OVC,BKN,0.00,0.0,WeatherDisplay:10.37,2013-09-08 17:28:00,
2013-09-08 12:33:00,64.0,52.0,30.07,SE,146,7.0,7.0,65,0.00,OVC,BKN,0.00,0.0,WeatherDisplay:10.37,2013-09-08 17:33:00,
2013-09-08 12:38:00,64.5,52.5,30.07,SE,124,5.8,5.8,65,0.00,OVC,BKN,0.00,0.0,WeatherDisplay:10.37,2013-09-08 17:38:00,
2013-09-08 12:43:00,64.5,51.2,30.07,SE,124,7.0,7.0,62,0.00,OVC,BKN,0.00,0.0,WeatherDisplay:10.37,2013-09-08 17:43:00,
2013-09-08 12:48:00,64.8,53.2,30.07,ESE,122,6.9,6.9,66,0.00,OVC,BKN,0.00,0.0,WeatherDisplay:10.37,2013-09-08 17:48:00,
2013-09-08 12:53:00,65.5,52.1,30.07,SE,129,8.1,8.1,62,0.00,OVC,BKN,0.00,0.0,WeatherDisplay:10.37,2013-09-08 17:53:00,
2013-09-08 12:59:00,66.0,51.3,30.07,SE,146,11.5,11.5,59,0.00,OVC,BKN,0.00,0.0,WeatherDisplay:10.37,2013-09-08 17:59:00,
2013-09-08 13:04:00,66.0,51.3,30.06,ESE,118,11.5,11.5,59,0.00,OVC,BKN,0.00,0.0,WeatherDisplay:10.37,2013-09-08 18:04:00,
2013-09-08 13:09:00,65.8,50.1,30.06,ESE,110,11.5,11.5,57,0.00,OVC,BKN,0.00,0.0,WeatherDisplay:10.37,2013-09-08 18:09:00,
2013-09-08 13:14:00,65.6,49.0,30.05,SSE,152,8.1,8.1,55,0.00,OVC,BKN,0.00,0.0,WeatherDisplay:10.37,2013-09-08 18:14:00,
2013-09-08 13:19:00,65.3,48.7,30.05,SSE,148,18.4,18.4,55,0.00,OVC,BKN,0.00,0.0,WeatherDisplay:10.37,2013-09-08 18:19:00,
2013-09-08 13:24:00,65.5,50.8,30.05,SE,141,9.2,9.2,59,0.00,OVC,BKN,0.00,0.0,WeatherDisplay:10.37,2013-09-08 18:24:00,
2013-09-08 13:29:00,66.0,52.6,30.05,ESE,111,10.0,10.0,62,0.00,OVC,BKN,0.00,0.0,WeatherDisplay:10.37,2013-09-08 18:29:00,
2013-09-08 13:34:00,66.4,49.7,30.05,ESE,120,7.0,12.0,55,0.00,OVC,BKN,0.00,0.0,WeatherDisplay:10.37,2013-09-08 18:34:00,
2013-09-08 13:39:00,66.6,49.9,30.04,ESE,107,9.2,9.2,55,0.00,OVC,BKN,0.00,0.0,WeatherDisplay:10.37,2013-09-08 18:39:00,
2013-09-08 13:44:00,66.6,49.4,30.04,SE,124,5.0,12.0,54,0.00,OVC,BKN,0.00,0.0,WeatherDisplay:10.37,2013-09-08 18:44:00,
2013-09-08 13:49:00,66.4,50.7,30.04,SE,141,9.2,9.2,57,0.00,OVC,BKN,0.00,0.0,WeatherDisplay:10.37,2013-09-08 18:49:00,
2013-09-08 13:55:00,66.4,49.2,30.04,ESE,118,11.5,11.5,54,0.00,OVC,BKN,0.00,0.0,WeatherDisplay:10.37,2013-09-08 18:55:00,
2013-09-08 14:00:00,66.4,50.7,30.04,ESE,115,6.9,6.9,57,0.00,OVC,BKN,0.00,0.0,WeatherDisplay:10.37,2013-09-08 19:00:00,
2013-09-08 14:05:00,66.3,50.6,30.04,SE,135,11.0,11.0,57,0.00,OVC,BKN,0.00,0.0,WeatherDisplay:10.37,2013-09-08 19:05:00,
2013-09-08 14:10:00,66.6,51.8,30.04,SSE,158,5.8,5.8,59,0.00,OVC,BKN,0.00,0.0,WeatherDisplay:10.37,2013-09-08 19:10:00,
2013-09-08 14:15:00,66.8,51.5,30.04,SSE,162,7.0,7.0,58,0.00,OVC,BKN,0.00,0.0,WeatherDisplay:10.37,2013-09-08 19:15:00,
2013-09-08 14:20:00,66.8,51.5,30.04,SSE,147,10.0,10.0,58,0.00,OVC,BKN,0.00,0.0,WeatherDisplay:10.37,2013-09-08 19:20:00,
2013-09-08 14:25:00,67.1,52.7,30.04,SSE,148,12.7,12.7,60,0.00,OVC,BKN,0.00,0.0,WeatherDisplay:10.37,2013-09-08 19:25:00,
2013-09-08 14:31:00,67.3,50.6,30.04,SSE,154,11.5,11.5,55,0.00,OVC,BKN,0.00,0.0,WeatherDisplay:10.37,2013-09-08 19:31:00,
2013-09-08 14:36:00,66.9,53.9,30.03,SE,133,10.4,10.4,63,0.00,OVC,BKN,0.00,0.0,WeatherDisplay:10.37,2013-09-08 19:36:00,
2013-09-08 14:41:00,66.9,51.2,30.03,ESE,121,9.2,9.2,57,0.00,OVC,BKN,0.00,0.0,WeatherDisplay:10.37,2013-09-08 19:41:00,
2013-09-08 14:46:00,67.1,53.2,30.03,SSE,163,5.8,5.8,61,0.00,OVC,BKN,0.00,0.0,WeatherDisplay:10.37,2013-09-08 19:46:00,
2013-09-08 14:51:00,67.1,52.7,30.03,ESE,111,11.5,11.5,60,0.00,OVC,BKN,0.00,0.0,WeatherDisplay:10.37,2013-09-08 19:51:00,
2013-09-08 14:56:00,67.3,53.4,30.02,SSE,152,11.0,11.0,61,0.00,OVC,BKN,0.00,0.0,WeatherDisplay:10.37,2013-09-08 19:56:00,
2013-09-08 15:01:00,67.1,52.3,30.01,SE,125,6.0,6.0,59,0.00,OVC,BKN,0.00,0.0,WeatherDisplay:10.37,2013-09-08 20:01:00,
2013-09-08 15:06:00,67.3,52.9,30.01,SE,144,12.0,12.0,60,0.00,OVC,BKN,0.00,0.0,WeatherDisplay:10.37,2013-09-08 20:06:00,
2013-09-08 15:12:00,67.1,51.4,30.01,SSE,163,8.1,8.1,57,0.00,OVC,BKN,0.00,0.0,WeatherDisplay:10.37,2013-09-08 20:12:00,
2013-09-08 15:17:00,67.1,53.6,30.01,SE,146,8.1,8.1,62,0.00,OVC,BKN,0.00,0.0,WeatherDisplay:10.37,2013-09-08 20:17:00,
2013-09-08 15:22:00,67.1,53.2,30.01,SSE,147,10.4,10.4,61,0.00,OVC,BKN,0.00,0.0,WeatherDisplay:10.37,2013-09-08 20:22:00,
2013-09-08 15:27:00,67.1,52.7,30.00,SE,142,12.0,12.0,60,0.00,OVC,BKN,0.00,0.0,WeatherDisplay:10.37,2013-09-08 20:27:00,
2013-09-08 15:32:00,67.1,52.3,30.00,SSE,152,9.2,9.2,59,0.00,OVC,BKN,0.00,0.0,WeatherDisplay:10.37,2013-09-08 20:32:00,
2013-09-08 15:37:00,67.3,52.5,30.00,SE,131,10.4,10.4,59,0.00,OVC,BKN,0.00,0.0,WeatherDisplay:10.37,2013-09-08 20:37:00,
2013-09-08 15:42:00,67.3,52.0,30.00,SE,143,8.1,8.1,58,0.00,OVC,BKN,0.00,0.0,WeatherDisplay:10.37,2013-09-08 20:42:00,
2013-09-08 15:48:00,67.4,53.0,30.00,SSE,164,8.1,8.1,60,0.00,OVC,BKN,0.00,0.0,WeatherDisplay:10.37,2013-09-08 20:48:00,
2013-09-08 15:53:00,67.6,52.3,29.99,South,172,9.2,9.2,58,0.00,OVC,BKN,0.00,0.0,WeatherDisplay:10.37,2013-09-08 20:53:00,
2013-09-08 15:58:00,67.6,53.2,29.99,South,171,9.2,9.2,60,0.00,OVC,BKN,0.00,0.0,WeatherDisplay:10.37,2013-09-08 20:58:00,
2013-09-08 16:03:00,67.9,53.5,29.99,ESE,106,7.0,7.0,60,0.00,OVC,BKN,0.00,0.0,WeatherDisplay:10.37,2013-09-08 21:03:00,
2013-09-08 16:08:00,67.8,52.0,29.98,SE,128,8.1,8.1,57,0.00,OVC,BKN,0.00,0.0,WeatherDisplay:10.37,2013-09-08 21:08:00,
2013-09-08 16:13:00,67.4,53.0,29.98,SSE,156,9.2,9.2,60,0.00,OVC,BKN,0.00,0.0,WeatherDisplay:10.37,2013-09-08 21:13:00,
2013-09-08 16:18:00,67.3,53.4,29.98,SE,144,11.5,11.5,61,0.00,OVC,BKN,0.00,0.0,WeatherDisplay:10.37,2013-09-08 21:18:00,
2013-09-08 16:23:00,67.1,53.2,29.98,South,174,8.1,8.1,61,0.00,OVC,BKN,0.00,0.0,WeatherDisplay:10.37,2013-09-08 21:23:00,
2013-09-08 16:29:00,66.9,54.7,29.98,South,173,3.5,3.5,65,0.00,OVC,BKN,0.00,0.0,WeatherDisplay:10.37,2013-09-08 21:29:00,
2013-09-08 16:34:00,66.8,55.5,29.98,South,173,3.5,3.5,67,0.00,OVC,BKN,0.00,0.0,WeatherDisplay:10.37,2013-09-08 21:34:00,
2013-09-08 16:39:00,66.6,54.5,29.98,South,169,3.5,3.5,65,0.00,OVC,BKN,0.00,0.0,WeatherDisplay:10.37,2013-09-08 21:39:00,
2013-09-08 16:44:00,66.4,55.1,29.98,SSE,160,8.1,8.1,67,0.00,OVC,BKN,0.00,0.0,WeatherDisplay:10.37,2013-09-08 21:44:00,
2013-09-08 16:49:00,66.4,56.3,29.98,SSE,160,5.0,5.0,70,0.00,OVC,BKN,0.00,0.0,WeatherDisplay:10.37,2013-09-08 21:49:00,
2013-09-08 16:54:00,66.4,56.3,29.98,SSE,160,3.5,3.5,70,0.00,OVC,BKN,0.00,0.0,WeatherDisplay:10.37,2013-09-08 21:54:00,
2013-09-08 16:59:00,66.4,57.1,29.98,SSE,160,4.6,4.6,72,0.00,OVC,BKN,0.00,0.0,WeatherDisplay:10.37,2013-09-08 21:59:00,
2013-09-08 17:04:00,66.4,56.7,29.98,SSE,160,1.0,3.0,71,0.00,OVC,BKN,0.00,0.0,WeatherDisplay:10.37,2013-09-08 22:04:00,
2013-09-08 17:09:00,66.4,57.1,29.98,SSE,160,2.3,2.3,72,0.00,OVC,BKN,0.00,0.0,WeatherDisplay:10.37,2013-09-08 22:09:00,
2013-09-08 17:14:00,66.6,57.3,29.98,SSE,160,0.0,2.0,72,0.00,OVC,BKN,0.00,0.0,WeatherDisplay:10.37,2013-09-08 22:14:00,
2013-09-08 17:19:00,66.6,57.3,29.97,SSE,160,0.0,3.0,72,0.00,OVC,BKN,0.00,0.0,WeatherDisplay:10.37,2013-09-08 22:19:00,
2013-09-08 17:25:00,66.6,57.7,29.97,SSE,160,4.0,4.0,73,0.00,OVC,BKN,0.00,0.0,WeatherDisplay:10.37,2013-09-08 22:25:00,
2013-09-08 17:30:00,66.6,57.7,29.97,SSE,160,4.6,4.6,73,0.00,OVC,BKN,0.00,0.0,WeatherDisplay:10.37,2013-09-08 22:30:00,
2013-09-08 17:35:00,66.4,57.5,29.97,SSE,167,7.0,7.0,73,0.00,OVC,BKN,0.00,0.0,WeatherDisplay:10.37,2013-09-08 22:35:00,
2013-09-08 17:40:00,66.4,57.1,29.97,SSE,167,5.8,5.8,72,0.00,OVC,BKN,0.00,0.0,WeatherDisplay:10.37,2013-09-08 22:40:00,
2013-09-08 17:45:00,66.3,56.6,29.97,South,181,5.0,5.0,71,0.00,OVC,BKN,0.00,0.0,WeatherDisplay:10.37,2013-09-08 22:45:00,
2013-09-08 17:50:00,66.3,56.6,29.97,South,179,5.8,5.8,71,0.00,OVC,BKN,0.00,0.0,WeatherDisplay:10.37,2013-09-08 22:50:00,
2013-09-08 17:55:00,66.1,56.0,29.97,South,179,2.3,2.3,70,0.00,OVC,BKN,0.00,0.0,WeatherDisplay:10.37,2013-09-08 22:55:00,
2013-09-08 18:01:00,66.0,56.3,29.97,South,179,3.5,3.5,71,0.00,CLR,BKN,0.00,0.0,WeatherDisplay:10.37,2013-09-08 23:01:00,
2013-09-08 18:06:00,66.0,56.3,29.97,South,179,4.0,4.0,71,0.00,CLR,BKN,0.00,0.0,WeatherDisplay:10.37,2013-09-08 23:06:00,
2013-09-08 18:11:00,65.8,55.7,29.97,South,179,5.0,5.0,70,0.00,CLR,BKN,0.00,0.0,WeatherDisplay:10.37,2013-09-08 23:11:00,
2013-09-08 18:16:00,65.8,55.7,29.97,South,179,3.5,3.5,70,0.00,CLR,BKN,0.00,0.0,WeatherDisplay:10.37,2013-09-08 23:16:00,
2013-09-08 18:21:00,65.6,56.3,29.97,South,179,0.0,0.0,72,0.00,CLR,BKN,0.00,0.0,WeatherDisplay:10.37,2013-09-08 23:21:00,
2013-09-08 18:26:00,65.6,56.3,29.97,South,179,0.0,0.0,72,0.00,CLR,BKN,0.00,0.0,WeatherDisplay:10.37,2013-09-08 23:26:00,
2013-09-08 18:31:00,65.5,56.6,29.96,South,179,0.0,0.0,73,0.00,CLR,BKN,0.00,0.0,WeatherDisplay:10.37,2013-09-08 23:31:00,
2013-09-08 18:36:00,65.3,56.8,29.96,South,179,0.0,0.0,74,0.00,CLR,BKN,0.00,0.0,WeatherDisplay:10.37,2013-09-08 23:36:00,
2013-09-08 18:42:00,65.3,57.2,29.96,South,179,0.0,0.0,75,0.00,CLR,BKN,0.00,0.0,WeatherDisplay:10.37,2013-09-08 23:42:00,
2013-09-08 18:47:00,65.2,57.8,29.96,South,179,0.0,0.0,77,0.00,CLR,BKN,0.00,0.0,WeatherDisplay:10.37,2013-09-08 23:47:00,
2013-09-08 18:52:00,65.2,57.8,29.96,South,179,2.3,2.3,77,0.00,CLR,BKN,0.00,0.0,WeatherDisplay:10.37,2013-09-08 23:52:00,
2013-09-08 18:57:00,65.0,58.0,29.96,South,179,1.2,0.0,78,0.00,CLR,BKN,0.00,0.0,WeatherDisplay:10.37,2013-09-08 23:57:00,
2013-09-08 19:02:00,64.8,58.1,29.96,South,179,1.2,0.0,79,0.00,CLR,BKN,0.00,0.0,WeatherDisplay:10.37,2013-09-09 00:02:00,
2013-09-08 19:07:00,64.8,58.1,29.96,South,179,2.3,2.3,79,0.00,CLR,BKN,0.00,0.0,WeatherDisplay:10.37,2013-09-09 00:07:00,
2013-09-08 19:12:00,64.7,58.4,29.96,South,179,2.3,2.3,80,0.00,CLR,BKN,0.00,0.0,WeatherDisplay:10.37,2013-09-09 00:12:00,
2013-09-08 19:18:00,64.5,57.8,29.96,South,179,0.0,0.0,79,0.00,CLR,BKN,0.00,0.0,WeatherDisplay:10.37,2013-09-09 00:18:00,
2013-09-08 19:23:00,64.2,57.5,29.95,South,179,0.0,0.0,79,0.00,CLR,BKN,0.00,0.0,WeatherDisplay:10.37,2013-09-09 00:23:00,
2013-09-08 19:28:00,64.0,57.4,29.96,South,179,0.0,0.0,79,0.00,CLR,BKN,0.00,0.0,WeatherDisplay:10.37,2013-09-09 00:28:00,
2013-09-08 19:33:00,63.9,57.3,29.96,South,179,0.0,0.0,79,0.00,CLR,BKN,0.00,0.0,WeatherDisplay:10.37,2013-09-09 00:33:00,
2013-09-08 19:38:00,63.7,57.4,29.96,South,179,0.0,0.0,80,0.00,CLR,BKN,0.00,0.0,WeatherDisplay:10.37,2013-09-09 00:38:00,
2013-09-08 19:43:00,63.4,57.1,29.96,South,179,1.2,1.2,80,0.00,CLR,BKN,0.00,0.0,WeatherDisplay:10.37,2013-09-09 00:43:00,
2013-09-08 19:48:00,63.2,57.3,29.96,South,179,1.2,0.0,81,0.00,CLR,BKN,0.00,0.0,WeatherDisplay:10.37,2013-09-09 00:48:00,
2013-09-08 19:53:00,63.1,57.2,29.96,South,179,1.2,0.0,81,0.00,CLR,BKN,0.00,0.0,WeatherDisplay:10.37,2013-09-09 00:53:00,
2013-09-08 19:59:00,62.9,57.3,29.96,South,179,1.2,1.2,82,0.00,CLR,BKN,0.00,0.0,WeatherDisplay:10.37,2013-09-09 00:59:00,
2013-09-08 20:04:00,62.7,57.5,29.95,South,179,1.2,0.0,83,0.00,CLR,BKN,0.00,0.0,WeatherDisplay:10.37,2013-09-09 01:04:00,
2013-09-08 20:09:00,62.6,57.7,29.95,South,179,0.0,0.0,84,0.00,CLR,BKN,0.00,0.0,WeatherDisplay:10.37,2013-09-09 01:09:00,
2013-09-08 20:14:00,62.4,57.5,29.95,South,179,1.2,0.0,84,0.00,CLR,BKN,0.00,0.0,WeatherDisplay:10.37,2013-09-09 01:14:00,
2013-09-08 20:19:00,62.3,57.4,29.95,South,179,1.2,1.2,84,0.00,CLR,BKN,0.00,0.0,WeatherDisplay:10.37,2013-09-09 01:19:00,
2013-09-08 20:24:00,62.1,57.5,29.95,South,179,2.3,2.3,85,0.00,CLR,BKN,0.00,0.0,WeatherDisplay:10.37,2013-09-09 01:24:00,
2013-09-08 20:29:00,62.0,57.8,29.95,South,179,2.3,2.3,86,0.00,CLR,BKN,0.00,0.0,WeatherDisplay:10.37,2013-09-09 01:29:00,
2013-09-08 20:34:00,61.8,57.6,29.95,South,179,1.0,2.0,86,0.00,CLR,BKN,0.00,0.0,WeatherDisplay:10.37,2013-09-09 01:34:00,
2013-09-08 20:39:00,61.8,57.9,29.95,South,179,3.5,3.5,87,0.00,CLR,BKN,0.00,0.0,WeatherDisplay:10.37,2013-09-09 01:39:00,
2013-09-08 20:45:00,61.6,58.0,29.94,SSE,165,5.8,5.8,88,0.00,CLR,BKN,0.00,0.0,WeatherDisplay:10.37,2013-09-09 01:45:00,
2013-09-08 20:50:00,61.3,57.7,29.94,SSE,152,7.0,7.0,88,0.00,CLR,BKN,0.00,0.0,WeatherDisplay:10.37,2013-09-09 01:50:00,
2013-09-08 20:55:00,61.3,57.7,29.94,SSE,150,4.6,4.6,88,0.00,CLR,BKN,0.00,0.0,WeatherDisplay:10.37,2013-09-09 01:55:00,
2013-09-08 21:00:00,61.2,57.6,29.94,SSE,150,6.0,6.0,88,0.00,CLR,BKN,0.00,0.0,WeatherDisplay:10.37,2013-09-09 02:00:00,
2013-09-08 21:05:00,61.0,57.4,29.94,SSE,150,8.1,8.1,88,0.00,CLR,BKN,0.00,0.0,WeatherDisplay:10.37,2013-09-09 02:05:00,
2013-09-08 21:10:00,60.9,57.0,29.94,SSE,158,9.2,9.2,87,0.00,CLR,BKN,0.00,0.0,WeatherDisplay:10.37,2013-09-09 02:10:00,
2013-09-08 21:15:00,60.9,57.0,29.94,SSE,152,12.0,12.0,87,0.00,CLR,BKN,0.00,0.0,WeatherDisplay:10.37,2013-09-09 02:15:00,
2013-09-08 21:20:00,60.7,56.5,29.94,SSE,154,10.4,10.4,86,0.00,CLR,BKN,0.00,0.0,WeatherDisplay:10.37,2013-09-09 02:20:00,
2013-09-08 21:26:00,60.7,56.8,29.94,SSE,155,9.2,9.2,87,0.00,CLR,BKN,0.00,0.0,WeatherDisplay:10.37,2013-09-09 02:26:00,
2013-09-08 21:31:00,60.7,56.5,29.94,SSE,147,9.0,9.0,86,0.00,CLR,BKN,0.00,0.0,WeatherDisplay:10.37,2013-09-09 02:31:00,
2013-09-08 21:36:00,60.5,56.3,29.94,SSE,153,9.2,9.2,86,0.00,CLR,BKN,0.00,0.0,WeatherDisplay:10.37,2013-09-09 02:36:00,
2013-09-08 21:41:00,60.5,56.3,29.94,SSE,165,6.9,6.9,86,0.00,CLR,BKN,0.00,0.0,WeatherDisplay:10.37,2013-09-09 02:41:00,
2013-09-08 21:46:00,60.5,56.0,29.93,SSE,163,9.2,9.2,85,0.00,CLR,BKN,0.00,0.0,WeatherDisplay:10.37,2013-09-09 02:46:00,
2013-09-08 21:51:00,60.7,56.2,29.93,SSE,165,9.2,9.2,85,0.00,CLR,BKN,0.00,0.0,WeatherDisplay:10.37,2013-09-09 02:51:00,
2013-09-08 21:56:00,60.7,55.8,29.93,SSE,167,8.1,8.1,84,0.00,CLR,BKN,0.00,0.0,WeatherDisplay:10.37,2013-09-09 02:56:00,
2013-09-08 22:02:00,60.7,55.8,29.93,South,177,7.0,7.0,84,0.00,CLR,BKN,0.00,0.0,WeatherDisplay:10.37,2013-09-09 03:02:00,
2013-09-08 22:07:00,60.7,55.8,29.94,South,174,6.9,6.9,84,0.00,CLR,BKN,0.00,0.0,WeatherDisplay:10.37,2013-09-09 03:07:00,
2013-09-08 22:12:00,60.7,55.5,29.93,South,173,6.0,6.0,83,0.00,CLR,BKN,0.00,0.0,WeatherDisplay:10.37,2013-09-09 03:12:00,
2013-09-08 22:17:00,60.7,55.5,29.93,South,174,5.8,5.8,83,0.00,CLR,BKN,0.00,0.0,WeatherDisplay:10.37,2013-09-09 03:17:00,
2013-09-08 22:22:00,60.7,55.5,29.93,SSE,166,7.0,7.0,83,0.00,CLR,BKN,0.00,0.0,WeatherDisplay:10.37,2013-09-09 03:22:00,
2013-09-08 22:27:00,60.7,55.5,29.93,SSE,165,7.0,7.0,83,0.00,CLR,BKN,0.00,0.0,WeatherDisplay:10.37,2013-09-09 03:27:00,
2013-09-08 22:32:00,60.7,55.5,29.93,SSE,167,6.9,6.9,83,0.00,CLR,BKN,0.00,0.0,WeatherDisplay:10.37,2013-09-09 03:32:00,
2013-09-08 22:37:00,60.7,55.5,29.93,SSE,165,6.9,6.9,83,0.00,CLR,BKN,0.00,0.0,WeatherDisplay:10.37,2013-09-09 03:37:00,
2013-09-08 22:43:00,60.7,55.5,29.93,SSE,163,9.2,9.2,83,0.00,CLR,BKN,0.00,0.0,WeatherDisplay:10.37,2013-09-09 03:43:00,
2013-09-08 22:48:00,60.7,55.5,29.93,SSE,161,7.0,7.0,83,0.00,CLR,BKN,0.00,0.0,WeatherDisplay:10.37,2013-09-09 03:48:00,
2013-09-08 22:53:00,60.7,55.5,29.93,SSE,162,9.2,9.2,83,0.00,CLR,BKN,0.00,0.0,WeatherDisplay:10.37,2013-09-09 03:53:00,
2013-09-08 22:58:00,60.7,55.5,29.93,SSE,163,6.9,6.9,83,0.00,CLR,BKN,0.00,0.0,WeatherDisplay:10.37,2013-09-09 03:58:00,
2013-09-08 23:01:00,60.7,55.5,29.93,SSE,163,8.1,8.1,83,0.00,CLR,BKN,0.00,0.0,WeatherDisplay:10.37,2013-09-09 04:01:00,
2013-09-08 23:02:00,60.7,55.5,29.93,SSE,163,8.1,8.1,83,0.00,CLR,BKN,0.00,0.0,WeatherDisplay:10.37,2013-09-09 04:02:00,
2013-09-08 23:08:00,60.7,55.5,29.93,SSE,161,7.0,7.0,83,0.00,CLR,BKN,0.00,0.0,WeatherDisplay:10.37,2013-09-09 04:08:00,
2013-09-08 23:13:00,60.7,55.5,29.92,SSE,161,8.1,8.1,83,0.00,CLR,BKN,0.00,0.0,WeatherDisplay:10.37,2013-09-09 04:13:00,
2013-09-08 23:18:00,60.7,55.5,29.92,SSE,153,10.4,10.4,83,0.00,CLR,BKN,0.00,0.0,WeatherDisplay:10.37,2013-09-09 04:18:00,
2013-09-08 23:23:00,60.7,55.5,29.92,SSE,154,7.0,7.0,83,0.00,CLR,BKN,0.00,0.0,WeatherDisplay:10.37,2013-09-09 04:23:00,
2013-09-08 23:28:00,60.7,55.5,29.92,South,169,6.0,6.0,83,0.00,CLR,BKN,0.00,0.0,WeatherDisplay:10.37,2013-09-09 04:28:00,
2013-09-08 23:33:00,60.7,55.5,29.92,SSE,165,8.1,8.1,83,0.00,CLR,BKN,0.00,0.0,WeatherDisplay:10.37,2013-09-09 04:33:00,
2013-09-08 23:38:00,60.7,55.2,29.92,SSE,163,8.1,8.1,82,0.00,CLR,BKN,0.00,0.0,WeatherDisplay:10.37,2013-09-09 04:38:00,
2013-09-08 23:43:00,60.7,55.8,29.92,SSE,160,10.0,10.0,84,0.01,RA,BKN,0.01,0.0,WeatherDisplay:10.37,2013-09-09 04:43:00,
2013-09-08 23:49:00,60.7,56.2,29.92,SSE,155,8.1,8.1,85,0.01,RA,BKN,0.01,0.0,WeatherDisplay:10.37,2013-09-09 04:49:00,
2013-09-08 23:54:00,60.7,56.2,29.92,SSE,158,8.1,8.1,85,0.01,CLR,BKN,0.01,0.0,WeatherDisplay:10.37,2013-09-09 04:54:00,
2013-09-08 23:59:00,60.5,56.3,29.92,SSE,161,6.9,6.9,86,0.01,CLR,BKN,0.01,0.0,WeatherDisplay:10.37,2013-09-09 04:59:00,